Portada
METAR-TAF:

METAR-TAF

Aeroports :

Teresina, Piauí, Brasil

latitud: 05-03S, longitud: 042-49W, altitud: 69 m

Observació

L'informe es va fer fa 10 minuts, a les 08:00 UTC
Vent 7 kt del Sud-Est
Temperatura 24°C
Humitat 74%
Pressió 1014 hPa
Visibilitat 10 km o més
sense núvols per sota de 1500 mi sense presència de cumulonimbus.

METAR: SBTE 200800Z 14007KT CAVOK 24/19 Q1014

Hora: 05:10 (08:10 UTC)

Pronòstic

L'informe es va fer fa 4 hores i 10 minuts, a les 04:00 UTC
Pronòstic vàlid del 20 a les 06 UTC al 20 a les 18 UTC
Vent 10 kt del Sud
Visibilitat 10 km o més
sense núvols per sota de 1500 mi sense presència de cumulonimbus.
Evolucionant progressivament
l' 20 a les 10 UTC al 20 a les 12 UTC
Vent 10 kt del Sud
Visibilitat 10 km o més
Núvols disperses a una alçada de 2500 ft

TAF: SBTE 200400Z 2006/2018 19010KT CAVOK TN24/2009Z TX32/2017Z BECMG 2010/2012 17010KT 9999 SCT025 RMK PEN

Observacions i pronòstics meteorològics de més de 4000 aeroports (METAR i TAF).

Les estacions disponibles són els punts grocs i vermells al mapa.

Posi el ratolí al punt desitjat per veure el nom de l'estació.

Feu clic per veure les observacions i els pronòstics meteorològics.

Per canviar el mapa: feu clic els botons verds amb una creu de color negre per apropar; al botó verd amb un guió per allunyar la imatge; o en les fletxes verdes per a mapes adjacents.


METAR-TAF: